createdAt,value
2017-05-25T00:00:30.333Z,8
2017-05-25T00:01:10.879Z,8
2017-05-25T00:01:51.423Z,8
2017-05-25T00:02:32.075Z,8
2017-05-25T00:03:13.649Z,8
2017-05-25T00:03:54.302Z,8
2017-05-25T00:04:34.953Z,8
2017-05-25T00:05:15.614Z,8
2017-05-25T00:05:56.164Z,8
2017-05-25T00:06:36.813Z,8
2017-05-25T00:07:17.468Z,8
2017-05-25T00:07:58.137Z,8
2017-05-25T00:08:38.772Z,8
2017-05-25T00:09:19.396Z,8
2017-05-25T00:10:00.048Z,8
2017-05-25T00:10:45.237Z,8
2017-05-25T00:11:25.824Z,8
2017-05-25T00:12:07.391Z,8
2017-05-25T00:12:48.065Z,8
2017-05-25T00:13:28.643Z,8
2017-05-25T00:14:09.195Z,8
2017-05-25T00:14:49.839Z,8
2017-05-25T00:15:30.397Z,8
2017-05-25T00:16:11.039Z,8
2017-05-25T00:16:51.591Z,8
2017-05-25T00:17:32.251Z,8
2017-05-25T00:18:12.805Z,8
2017-05-25T00:18:53.352Z,8
2017-05-25T00:19:33.897Z,8
2017-05-25T00:20:14.443Z,8
2017-05-25T00:20:55.001Z,8
2017-05-25T00:21:35.549Z,8
2017-05-25T00:22:16.109Z,8
2017-05-25T00:22:56.648Z,8
2017-05-25T00:23:37.231Z,8
2017-05-25T00:24:18.216Z,8
2017-05-25T00:24:58.812Z,8
2017-05-25T00:25:39.375Z,8
2017-05-25T00:26:19.918Z,8
2017-05-25T00:27:00.521Z,8
2017-05-25T00:27:41.132Z,8
2017-05-25T00:28:21.774Z,8
2017-05-25T00:29:02.325Z,8
2017-05-25T00:29:43.075Z,8
2017-05-25T00:30:23.648Z,8
2017-05-25T00:31:04.186Z,8
2017-05-25T00:31:44.732Z,8
2017-05-25T00:32:26.308Z,8
2017-05-25T00:33:06.857Z,8
2017-05-25T00:33:47.817Z,8
2017-05-25T00:34:28.468Z,8
2017-05-25T00:35:09.031Z,8
2017-05-25T00:35:49.568Z,8
2017-05-25T00:36:30.123Z,8
2017-05-25T00:37:10.677Z,8
2017-05-25T00:37:51.223Z,8
2017-05-25T00:38:31.770Z,8
2017-05-25T00:39:12.350Z,8
2017-05-25T00:39:52.926Z,8
2017-05-25T00:40:33.537Z,8
2017-05-25T00:41:14.059Z,8
2017-05-25T09:03:22.180Z,6028
2017-05-25T09:04:02.815Z,6064
2017-05-25T09:04:43.501Z,6024
2017-05-25T09:05:24.123Z,6168
2017-05-25T09:06:04.798Z,6120
2017-05-25T09:06:45.547Z,6204
2017-05-25T09:07:26.196Z,5940
2017-05-25T09:08:06.837Z,5960
2017-05-25T09:08:47.486Z,6348
2017-05-25T09:09:28.050Z,6560
2017-05-25T09:10:08.779Z,6924
2017-05-25T09:10:49.512Z,7168
2017-05-25T09:11:30.220Z,7216
2017-05-25T09:12:10.726Z,6964
2017-05-25T09:12:51.475Z,6712
2017-05-25T09:13:32.126Z,6528
2017-05-25T09:14:12.811Z,6228
2017-05-25T09:14:53.335Z,6176
2017-05-25T09:15:33.984Z,6140
2017-05-25T09:16:14.586Z,6340
2017-05-25T09:16:55.194Z,6300
2017-05-25T09:17:35.775Z,5700
2017-05-25T09:18:16.400Z,5520
2017-05-25T09:18:56.996Z,4684
2017-05-25T09:19:37.727Z,4596
2017-05-25T09:20:18.348Z,5416
2017-05-25T09:20:59.062Z,5468
2017-05-25T09:21:39.711Z,5276
2017-05-25T09:22:20.328Z,5472
2017-05-25T09:23:00.855Z,5204
2017-05-25T09:23:41.521Z,5220
2017-05-25T09:24:22.118Z,5188
2017-05-25T09:25:02.714Z,5024
2017-05-25T09:25:43.389Z,5036
2017-05-25T09:26:24.030Z,5136
2017-05-25T09:27:04.783Z,5204
2017-05-25T09:27:45.426Z,5120
2017-05-25T09:28:26.107Z,5080
2017-05-25T09:29:06.743Z,5036
2017-05-25T09:29:47.385Z,5164
2017-05-25T09:30:28.041Z,5240
2017-05-25T09:31:08.697Z,5240
2017-05-25T09:31:49.527Z,5036
2017-05-25T09:32:30.307Z,4852
2017-05-25T09:33:11.066Z,4856
2017-05-25T09:33:51.905Z,4848
2017-05-25T09:34:32.576Z,4864
2017-05-25T09:35:13.222Z,4876
2017-05-25T09:35:53.896Z,4880
2017-05-25T09:36:34.664Z,4884
2017-05-25T09:37:15.384Z,4916
2017-05-25T09:37:56.039Z,4860
2017-05-25T09:38:36.692Z,4916
2017-05-25T09:39:17.343Z,4868
2017-05-25T09:39:57.997Z,4864
2017-05-25T09:40:38.684Z,4852
2017-05-25T09:41:19.315Z,4888
2017-05-25T09:41:59.959Z,4900
2017-05-25T09:42:40.609Z,4884
2017-05-25T09:43:21.265Z,4752
2017-05-25T09:44:01.918Z,4804
2017-05-25T09:44:42.570Z,4804
2017-05-25T09:45:23.276Z,4788
2017-05-25T09:46:03.876Z,4816
2017-05-25T09:46:44.552Z,4796
2017-05-25T09:47:25.191Z,4812
2017-05-25T09:48:05.838Z,4784
2017-05-25T09:48:46.487Z,4760
2017-05-25T09:49:27.172Z,4752
2017-05-25T09:50:07.897Z,4720
2017-05-25T09:50:48.562Z,4732
2017-05-25T09:51:29.206Z,4800
2017-05-25T09:52:10.913Z,4888
2017-05-25T09:52:51.532Z,4788
2017-05-25T09:53:32.184Z,4920
2017-05-25T09:54:12.836Z,4920
2017-05-25T09:54:53.492Z,4944
2017-05-25T09:55:35.167Z,4960
2017-05-25T09:56:17.882Z,5024
2017-05-25T09:56:58.519Z,5048
2017-05-25T09:57:39.202Z,5076
2017-05-25T09:58:19.742Z,5092
2017-05-25T09:59:00.292Z,5076
2017-05-25T09:59:40.825Z,5112
2017-05-25T10:00:21.477Z,5148
2017-05-25T10:01:02.135Z,5032
2017-05-25T10:01:42.784Z,4972
2017-05-25T10:02:23.334Z,5020
2017-05-25T10:03:03.904Z,5044
2017-05-25T10:03:44.571Z,5148
2017-05-25T10:04:25.216Z,5188
2017-05-25T10:05:05.745Z,5108
2017-05-25T10:05:46.408Z,5120
2017-05-25T10:06:27.050Z,5208
2017-05-25T10:07:07.697Z,5240
2017-05-25T10:07:48.353Z,3952
2017-05-25T10:08:29.011Z,4116
2017-05-25T10:09:09.526Z,4064
2017-05-25T10:09:50.239Z,5288
2017-05-25T10:10:30.919Z,5148
2017-05-25T10:11:11.617Z,5128
2017-05-25T10:11:52.132Z,5092
2017-05-25T10:12:32.745Z,5024
2017-05-25T10:13:13.351Z,4932
2017-05-25T10:13:54.025Z,5028
2017-05-25T10:14:34.574Z,5092
2017-05-25T10:15:15.328Z,5176
2017-05-25T10:15:55.984Z,5156
2017-05-25T10:16:36.641Z,5132
2017-05-25T10:17:17.286Z,5016
2017-05-25T10:17:58.034Z,5048
2017-05-25T10:18:38.698Z,5112
2017-05-25T10:19:19.347Z,5028
2017-05-25T10:20:00.043Z,4980
2017-05-25T10:20:40.662Z,5028
2017-05-25T10:21:21.319Z,5068
2017-05-25T10:22:02.880Z,4964
2017-05-25T10:22:43.425Z,4896
2017-05-25T10:23:24.096Z,4872
2017-05-25T10:24:04.636Z,4900
2017-05-25T10:24:45.186Z,4952
2017-05-25T10:25:25.804Z,5028
2017-05-25T10:26:06.491Z,5060
2017-05-25T10:26:47.042Z,5184
2017-05-25T10:27:27.688Z,5168
2017-05-25T10:28:08.334Z,5136
2017-05-25T10:28:48.905Z,5156
2017-05-25T10:29:29.486Z,5032
2017-05-25T10:30:10.218Z,4888
2017-05-25T10:30:50.929Z,4812
2017-05-25T10:31:31.568Z,4764
2017-05-25T10:32:12.222Z,4748
2017-05-25T10:32:52.880Z,4688
2017-05-25T10:33:33.520Z,4712
2017-05-25T10:34:15.090Z,4696
2017-05-25T10:34:55.749Z,4636
2017-05-25T10:35:36.402Z,4652
2017-05-25T10:36:17.032Z,4696
2017-05-25T10:36:57.584Z,4660
2017-05-25T10:37:38.259Z,3920
2017-05-25T10:38:18.927Z,4344
2017-05-25T10:38:59.605Z,4740
2017-05-25T10:39:41.254Z,4784
2017-05-25T10:40:22.060Z,4824
2017-05-25T10:41:02.722Z,4852
2017-05-25T10:41:44.406Z,4680
2017-05-25T10:42:26.066Z,4748
2017-05-25T10:43:06.729Z,4724
2017-05-25T10:43:47.381Z,4756
2017-05-25T10:44:28.025Z,4868
2017-05-25T10:45:08.693Z,4856
2017-05-25T10:45:49.334Z,4824
2017-05-25T10:46:29.984Z,4808
2017-05-25T10:47:10.650Z,4788
2017-05-25T10:47:52.323Z,4784
2017-05-25T10:48:33.999Z,4708
2017-05-25T10:49:14.667Z,4780
2017-05-25T10:49:56.322Z,4840
2017-05-25T10:50:36.984Z,4852
2017-05-25T10:51:18.727Z,4844
2017-05-25T10:52:00.430Z,4840
2017-05-25T10:52:41.099Z,4856
2017-05-25T10:53:21.736Z,4888
2017-05-25T10:54:02.395Z,4900
2017-05-25T10:54:42.916Z,4916
2017-05-25T10:55:23.635Z,4912
2017-05-25T10:56:04.332Z,4896
2017-05-25T10:56:45.008Z,4900
2017-05-25T10:57:25.592Z,4872
2017-05-25T10:58:06.222Z,4876
2017-05-25T10:58:47.842Z,4940
2017-05-25T10:59:28.532Z,4864
2017-05-25T11:00:09.052Z,4852
2017-05-25T11:00:51.716Z,4848
2017-05-25T11:01:32.389Z,4848
2017-05-25T11:02:13.101Z,4892
2017-05-25T11:02:53.620Z,4908
2017-05-25T11:03:34.342Z,4932
2017-05-25T11:04:15.024Z,4952
2017-05-25T11:04:55.710Z,4996
2017-05-25T11:05:36.271Z,5060
2017-05-25T11:06:16.964Z,5160
2017-05-25T11:06:57.681Z,5332
2017-05-25T11:07:38.230Z,5324
2017-05-25T11:08:18.947Z,5084
2017-05-25T11:08:59.626Z,5080
2017-05-25T11:09:40.179Z,5136
2017-05-25T11:10:21.798Z,5180
2017-05-25T11:11:03.476Z,5172
2017-05-25T11:11:44.155Z,5112
2017-05-25T11:12:24.820Z,5008
2017-05-25T11:13:05.549Z,4920
2017-05-25T11:13:47.660Z,4880
2017-05-25T11:14:28.251Z,4828
2017-05-25T11:15:08.964Z,4796
2017-05-25T11:15:49.654Z,4852
2017-05-25T11:16:30.182Z,4904
2017-05-25T11:17:10.890Z,4932
2017-05-25T11:17:51.600Z,4924
2017-05-25T11:18:32.253Z,4964
2017-05-25T11:19:12.779Z,5016
2017-05-25T11:19:54.488Z,5064
2017-05-25T11:20:35.108Z,5128
2017-05-25T11:21:15.751Z,5200
2017-05-25T11:21:57.300Z,5292
2017-05-25T11:22:37.864Z,5280
2017-05-25T11:23:18.530Z,5348
2017-05-25T11:23:59.176Z,5340
2017-05-25T11:24:39.909Z,5296
2017-05-25T11:25:20.501Z,5300
2017-05-25T11:26:01.144Z,5296
2017-05-25T11:26:41.713Z,5584
2017-05-25T11:27:22.347Z,5216
2017-05-25T11:28:02.938Z,5304
2017-05-25T11:28:43.517Z,5160
2017-05-25T11:29:24.088Z,5308
2017-05-25T11:30:04.931Z,4528
2017-05-25T11:30:45.586Z,5176
2017-05-25T11:31:26.141Z,5172
2017-05-25T11:32:06.703Z,5060
2017-05-25T11:32:47.416Z,4900
2017-05-25T11:33:28.000Z,4872
2017-05-25T11:34:08.649Z,4860
2017-05-25T11:34:49.298Z,4840
2017-05-25T11:35:29.964Z,4804
2017-05-25T11:36:10.622Z,4808
2017-05-25T11:36:51.291Z,4892
2017-05-25T11:37:31.946Z,4892
2017-05-25T11:38:12.586Z,4840
2017-05-25T11:38:53.231Z,4932
2017-05-25T11:39:33.777Z,4780
2017-05-25T11:40:14.455Z,5008
2017-05-25T11:40:55.019Z,5032
2017-05-25T11:41:35.627Z,5028
2017-05-25T11:42:16.154Z,5076
2017-05-25T11:42:56.759Z,5072
2017-05-25T11:43:37.342Z,5140
2017-05-25T11:44:17.939Z,5324
2017-05-25T11:44:58.458Z,5420
2017-05-25T11:45:39.055Z,5480
2017-05-25T11:46:19.640Z,5536
2017-05-25T11:47:00.273Z,5448
2017-05-25T11:47:40.804Z,5452
2017-05-25T11:48:21.470Z,5512
2017-05-25T11:49:02.144Z,5664
2017-05-25T11:49:42.755Z,5764
2017-05-25T11:50:23.333Z,5964
2017-05-25T11:51:03.939Z,6140
2017-05-25T11:51:44.513Z,6124
2017-05-25T11:52:25.043Z,5840
2017-05-25T11:53:05.675Z,5632
2017-05-25T11:53:46.354Z,5488
2017-05-25T11:54:26.866Z,5520
2017-05-25T11:55:07.523Z,4472
2017-05-25T11:55:48.183Z,5624
2017-05-25T11:56:28.841Z,6460
2017-05-25T11:57:09.510Z,6752
2017-05-25T11:57:50.134Z,7016
2017-05-25T11:58:30.778Z,7336
2017-05-25T11:59:11.467Z,7232
2017-05-25T11:59:52.133Z,7216
2017-05-25T12:00:32.665Z,7204
2017-05-25T12:01:13.285Z,6948
2017-05-25T12:01:53.888Z,6604
2017-05-25T12:02:34.430Z,6088
2017-05-25T12:03:15.040Z,5624
2017-05-25T12:03:55.668Z,5340
2017-05-25T12:04:36.192Z,5220
2017-05-25T12:05:16.797Z,5164
2017-05-25T12:05:58.819Z,5148
2017-05-25T12:06:39.451Z,5108
2017-05-25T12:07:20.181Z,4924
2017-05-25T12:08:00.858Z,4552
2017-05-25T12:08:41.368Z,4780
2017-05-25T12:09:22.032Z,5388
2017-05-25T12:10:02.719Z,5364
2017-05-25T12:10:43.467Z,5320
2017-05-25T12:11:24.132Z,5280
2017-05-25T12:12:04.882Z,5236
2017-05-25T12:12:46.564Z,5168
2017-05-25T12:13:28.331Z,5152
2017-05-25T12:14:08.995Z,5188
2017-05-25T12:14:49.562Z,5172
2017-05-25T12:15:30.218Z,5108
2017-05-25T12:16:10.922Z,5116
2017-05-25T12:16:51.698Z,5044
2017-05-25T12:17:32.224Z,4964
2017-05-25T12:18:12.916Z,4912
2017-05-25T12:18:53.575Z,4900
2017-05-25T12:19:34.190Z,4904
2017-05-25T12:20:14.894Z,4972
2017-05-25T12:20:55.695Z,4844
2017-05-25T12:21:37.473Z,4900
2017-05-25T12:22:18.110Z,4976
2017-05-25T12:22:58.721Z,4968
2017-05-25T12:23:39.327Z,4868
2017-05-25T12:24:21.992Z,4856
2017-05-25T12:25:02.669Z,4820
2017-05-25T12:25:43.225Z,4772
2017-05-25T12:26:24.932Z,4752
2017-05-25T12:27:05.618Z,4752
2017-05-25T12:27:46.201Z,4784
2017-05-25T12:28:26.780Z,4808
2017-05-25T12:29:07.439Z,4876
2017-05-25T12:29:48.105Z,4912
2017-05-25T12:30:28.723Z,4796
2017-05-25T12:31:09.432Z,4840
2017-05-25T12:31:50.086Z,4816
2017-05-25T12:32:30.835Z,4828
2017-05-25T12:33:11.445Z,4724
2017-05-25T12:33:52.109Z,4820
2017-05-25T12:34:32.759Z,4848
2017-05-25T12:35:13.424Z,5260
2017-05-25T12:35:54.115Z,4840
2017-05-25T12:36:34.757Z,4856
2017-05-25T12:37:15.369Z,4856
2017-05-25T12:37:56.075Z,4852
2017-05-25T12:38:36.703Z,4852
2017-05-25T12:39:17.394Z,4840
2017-05-25T12:39:58.056Z,4880
2017-05-25T12:40:38.576Z,4952
2017-05-25T12:41:20.392Z,5004
2017-05-25T12:42:01.117Z,5004
2017-05-25T12:42:42.826Z,5036
2017-05-25T12:43:23.368Z,5140
2017-05-25T12:44:04.092Z,5208
2017-05-25T12:44:45.759Z,5244
2017-05-25T12:45:27.380Z,5336
2017-05-25T12:46:08.048Z,5384
2017-05-25T12:46:48.689Z,5372
2017-05-25T12:47:29.338Z,5372
2017-05-25T12:48:10.091Z,5428
2017-05-25T12:48:50.751Z,5428
2017-05-25T12:49:31.413Z,5192
2017-05-25T12:50:11.978Z,5100
2017-05-25T12:50:52.681Z,5184
2017-05-25T12:51:33.316Z,5060
2017-05-25T12:52:14.013Z,4176
2017-05-25T12:52:54.540Z,5192
2017-05-25T12:53:35.237Z,5276
2017-05-25T12:54:15.935Z,5168
2017-05-25T12:54:56.646Z,5176
2017-05-25T12:55:37.434Z,5180
2017-05-25T12:56:18.239Z,5140
2017-05-25T12:56:58.886Z,5208
2017-05-25T12:57:39.552Z,5116
2017-05-25T12:58:20.243Z,5236
2017-05-25T12:59:00.957Z,5184
2017-05-25T12:59:41.636Z,5108
2017-05-25T13:00:22.256Z,5052
2017-05-25T13:01:02.918Z,5064
2017-05-25T13:01:43.570Z,5048
2017-05-25T13:02:24.222Z,5140
2017-05-25T13:03:05.900Z,5192
2017-05-25T13:03:46.555Z,5212
2017-05-25T13:04:27.205Z,5232
2017-05-25T13:05:07.748Z,5296
2017-05-25T13:05:48.389Z,5380
2017-05-25T13:06:29.053Z,5356
2017-05-25T13:07:09.591Z,5468
2017-05-25T13:07:50.233Z,5544
2017-05-25T13:08:31.934Z,5488
2017-05-25T13:09:12.462Z,5420
2017-05-25T13:09:53.112Z,5284
2017-05-25T13:10:33.796Z,5228
2017-05-25T13:11:14.302Z,5224
2017-05-25T13:11:54.951Z,5192
2017-05-25T13:12:35.647Z,5236
2017-05-25T13:13:16.173Z,4340
2017-05-25T13:13:56.805Z,5440
2017-05-25T13:14:37.503Z,5404
2017-05-25T13:15:18.054Z,5480
2017-05-25T13:15:58.736Z,4844
2017-05-25T13:16:39.451Z,5608
2017-05-25T13:17:20.121Z,4840
2017-05-25T13:18:01.068Z,5580
2017-05-25T13:18:42.766Z,5424
2017-05-25T13:19:23.482Z,5264
2017-05-25T13:20:04.171Z,5204
2017-05-25T13:20:44.811Z,5300
2017-05-25T13:21:25.473Z,5360
2017-05-25T13:22:06.145Z,5392
2017-05-25T13:22:46.776Z,5408
2017-05-25T13:23:27.434Z,5484
2017-05-25T13:24:08.186Z,5364
2017-05-25T13:24:48.731Z,5448
2017-05-25T13:25:29.432Z,5444
2017-05-25T13:26:10.105Z,5488
2017-05-25T13:26:50.796Z,5616
2017-05-25T13:27:31.357Z,5844
2017-05-25T13:28:12.048Z,5988
2017-05-25T13:28:52.714Z,6092
2017-05-25T13:29:33.423Z,6260
2017-05-25T13:30:14.080Z,6380
2017-05-25T13:30:54.712Z,6204
2017-05-25T13:31:35.371Z,6212
2017-05-25T13:32:16.027Z,5900
2017-05-25T13:32:56.673Z,5440
2017-05-25T13:33:37.339Z,5304
2017-05-25T13:34:18.019Z,5288
2017-05-25T13:34:58.578Z,5180
2017-05-25T13:35:39.262Z,5136
2017-05-25T13:36:20.967Z,5100
2017-05-25T13:37:01.477Z,5112
2017-05-25T13:37:42.168Z,5084
2017-05-25T13:38:22.826Z,5072
2017-05-25T13:39:03.340Z,5092
2017-05-25T13:39:44.019Z,5052
2017-05-25T13:40:25.709Z,5052
2017-05-25T13:41:06.365Z,5032
2017-05-25T13:41:47.014Z,5016
2017-05-25T13:42:27.659Z,4944
2017-05-25T13:43:08.351Z,4852
2017-05-25T13:43:50.103Z,3916
2017-05-25T13:44:30.744Z,4340
2017-05-25T13:45:11.257Z,5176
2017-05-25T13:45:51.923Z,5168
2017-05-25T13:46:33.650Z,4404
2017-05-25T13:47:14.188Z,4360
2017-05-25T13:47:54.886Z,5576
2017-05-25T13:48:35.587Z,5664
2017-05-25T13:49:16.092Z,5764
2017-05-25T13:49:57.367Z,6056
2017-05-25T13:50:39.284Z,6328
2017-05-25T13:51:20.342Z,6688
2017-05-25T13:52:00.938Z,7100
2017-05-25T13:52:41.651Z,7148
2017-05-25T13:53:22.620Z,7132
2017-05-25T13:54:03.126Z,6576
2017-05-25T13:54:43.829Z,6624
2017-05-25T13:55:24.532Z,6224
2017-05-25T13:56:05.545Z,6048
2017-05-25T13:56:46.095Z,6140
2017-05-25T13:57:26.755Z,5996
2017-05-25T13:58:08.613Z,5328
2017-05-25T13:58:49.281Z,6068
2017-05-25T13:59:29.811Z,6332
2017-05-25T14:00:10.570Z,6320
2017-05-25T14:00:51.161Z,5260
2017-05-25T14:01:31.794Z,5380
2017-05-25T14:02:14.488Z,5744
2017-05-25T14:02:55.146Z,6848
2017-05-25T14:03:37.905Z,7016
2017-05-25T14:04:18.656Z,6120
2017-05-25T14:04:59.365Z,5888
2017-05-25T14:05:40.132Z,5532
2017-05-25T14:06:20.654Z,5556
2017-05-25T14:07:01.457Z,5664
2017-05-25T14:07:42.570Z,5868
2017-05-25T14:08:23.111Z,6128
2017-05-25T14:09:03.784Z,6544
2017-05-25T14:09:44.369Z,6900
2017-05-25T14:10:26.413Z,6976
2017-05-25T14:11:07.360Z,6648
2017-05-25T14:11:49.331Z,7340
2017-05-25T14:12:30.483Z,7200
2017-05-25T14:13:12.151Z,7164
2017-05-25T14:13:53.029Z,7080
2017-05-25T14:14:34.791Z,7260
2017-05-25T14:15:15.536Z,7260
2017-05-25T14:15:56.181Z,7024
2017-05-25T14:16:36.836Z,6824
2017-05-25T14:17:17.418Z,6636
2017-05-25T14:17:58.976Z,6528
2017-05-25T14:18:39.650Z,6472
2017-05-25T14:19:20.272Z,6420
2017-05-25T14:20:00.814Z,6236
2017-05-25T14:20:41.396Z,6092
2017-05-25T14:21:21.971Z,6148
2017-05-25T14:22:02.577Z,5988
2017-05-25T14:22:43.119Z,6048
2017-05-25T14:23:23.792Z,6244
2017-05-25T14:24:05.416Z,6300
2017-05-25T14:24:46.019Z,6076
2017-05-25T14:25:26.543Z,6240
2017-05-25T14:26:07.119Z,6388
2017-05-25T14:26:47.725Z,6000
2017-05-25T14:27:28.315Z,5812
2017-05-25T14:28:08.867Z,5488
2017-05-25T14:28:49.522Z,5576
2017-05-25T14:29:31.151Z,5512
2017-05-25T14:30:11.869Z,5504
2017-05-25T14:30:54.555Z,5588
2017-05-25T14:31:36.238Z,5416
2017-05-25T14:32:17.909Z,5740
2017-05-25T14:32:58.592Z,5728
2017-05-25T14:33:39.227Z,5092
2017-05-25T14:34:19.898Z,4544
2017-05-25T14:35:00.469Z,5504
2017-05-25T14:35:41.082Z,5032
2017-05-25T14:36:22.721Z,5236
2017-05-25T14:37:03.292Z,4076
2017-05-25T14:37:43.858Z,4128
2017-05-25T14:38:24.533Z,4388
2017-05-25T14:39:06.129Z,4812
2017-05-25T14:39:46.725Z,4820
2017-05-25T14:40:27.279Z,5064
2017-05-25T14:41:08.070Z,6520
2017-05-25T14:41:48.682Z,6508
2017-05-25T14:42:29.212Z,5544
2017-05-25T14:43:09.852Z,5736
2017-05-25T14:43:50.500Z,6176
2017-05-25T14:44:31.091Z,7220
2017-05-25T14:45:11.612Z,6276
2017-05-25T14:45:52.249Z,6192
2017-05-25T14:46:32.846Z,6300
2017-05-25T14:47:13.379Z,7092
2017-05-25T14:47:54.136Z,7668
2017-05-25T14:48:34.804Z,7976
2017-05-25T14:49:15.408Z,7260
2017-05-25T14:49:56.075Z,8056
2017-05-25T14:50:36.636Z,8020
2017-05-25T14:51:17.303Z,7948
2017-05-25T14:51:57.928Z,7276
2017-05-25T14:52:38.582Z,7316
2017-05-25T14:53:19.248Z,7432
2017-05-25T14:53:59.990Z,6136
2017-05-25T14:54:40.660Z,5748
2017-05-25T14:55:21.231Z,6616
2017-05-25T14:56:01.756Z,5448
2017-05-25T14:56:43.413Z,6088
2017-05-25T14:57:24.044Z,5540
2017-05-25T14:58:04.667Z,5544
2017-05-25T14:58:45.196Z,6464
2017-05-25T14:59:26.012Z,5508
2017-05-25T15:00:06.814Z,5452
2017-05-25T15:00:47.436Z,6536
2017-05-25T15:01:29.118Z,6024
2017-05-25T15:02:09.799Z,7072
2017-05-25T15:02:50.432Z,7044
2017-05-25T15:03:31.069Z,6732
2017-05-25T15:04:11.744Z,6900
2017-05-25T15:04:52.377Z,6792
2017-05-25T15:05:33.032Z,6900
2017-05-25T15:06:14.702Z,6936
2017-05-25T15:06:55.389Z,6976
2017-05-25T15:07:36.009Z,6792
2017-05-25T15:08:16.666Z,6544
2017-05-25T15:08:57.414Z,5496
2017-05-25T15:09:38.177Z,5712
2017-05-25T15:10:19.847Z,6576
2017-05-25T15:11:00.507Z,6516
2017-05-25T15:11:41.159Z,6232
2017-05-25T15:12:21.812Z,4868
2017-05-25T15:13:02.467Z,5676
2017-05-25T15:13:44.154Z,5496
2017-05-25T15:14:24.792Z,5356
2017-05-25T15:15:05.455Z,5272
2017-05-25T15:15:46.107Z,4996
2017-05-25T15:16:27.814Z,4588
2017-05-25T15:17:08.478Z,5572
2017-05-25T15:17:50.158Z,5684
2017-05-25T15:18:30.807Z,5656
2017-05-25T15:19:12.539Z,5676
2017-05-25T15:19:53.195Z,5496
2017-05-25T15:20:34.128Z,5256
2017-05-25T15:21:14.683Z,5136
2017-05-25T15:21:55.550Z,5124
2017-05-25T15:22:36.306Z,5084
2017-05-25T15:23:16.886Z,4500
2017-05-25T15:23:57.529Z,5068
2017-05-25T15:24:38.148Z,4836
2017-05-25T15:25:20.176Z,3980
2017-05-25T15:26:02.096Z,5048
2017-05-25T15:26:45.304Z,4668
2017-05-25T15:27:26.017Z,3784
2017-05-25T15:28:06.738Z,3788
2017-05-25T15:28:48.487Z,3832
2017-05-25T15:29:29.110Z,3876
2017-05-25T15:30:10.000Z,3980
2017-05-25T15:30:50.753Z,4132
2017-05-25T15:31:31.515Z,4064
2017-05-25T15:32:12.168Z,4108
2017-05-25T15:32:52.827Z,4108
2017-05-25T15:33:33.610Z,4732
2017-05-25T15:34:14.235Z,4184
2017-05-25T15:34:54.878Z,4072
2017-05-25T15:35:35.534Z,4012
2017-05-25T15:36:18.252Z,3972
2017-05-25T15:36:58.941Z,3936
2017-05-25T15:37:39.542Z,4168
2017-05-25T15:38:20.200Z,3676
2017-05-25T15:39:00.846Z,3668
2017-05-25T15:39:42.522Z,3768
2017-05-25T15:40:23.172Z,3904
2017-05-25T15:41:04.863Z,5084
2017-05-25T15:41:45.514Z,4232
2017-05-25T15:42:26.156Z,4188
2017-05-25T15:43:06.806Z,4208
2017-05-25T15:43:47.466Z,5008
2017-05-25T15:44:28.138Z,5352
2017-05-25T15:45:08.769Z,5368
2017-05-25T15:45:49.650Z,5280
2017-05-25T15:46:30.544Z,5152
2017-05-25T15:47:11.510Z,5112
2017-05-25T15:47:52.378Z,4000
2017-05-25T15:48:33.116Z,3956
2017-05-25T15:49:14.149Z,3956
2017-05-25T15:49:54.979Z,3936
2017-05-25T15:50:36.245Z,3860
2017-05-25T15:51:17.206Z,3908
2017-05-25T15:51:58.186Z,3968
2017-05-25T15:52:38.836Z,3940
2017-05-25T15:53:19.588Z,4980
2017-05-25T15:54:00.356Z,4996
2017-05-25T15:54:40.918Z,4928
2017-05-25T15:55:21.661Z,3976
2017-05-25T15:56:02.411Z,3968
2017-05-25T15:56:43.140Z,3896
2017-05-25T15:57:24.800Z,4660
2017-05-25T15:58:05.456Z,4136
2017-05-25T15:58:46.116Z,4404
2017-05-25T15:59:26.758Z,3928
2017-05-25T16:00:07.416Z,3736
2017-05-25T16:00:48.083Z,3708
2017-05-25T16:01:28.851Z,3732
2017-05-25T16:02:09.587Z,3760
2017-05-25T16:02:50.233Z,3848
2017-05-25T16:03:30.885Z,3960
2017-05-25T16:04:11.566Z,3964
2017-05-25T16:04:52.293Z,4044
2017-05-25T16:05:33.030Z,4204
2017-05-25T16:06:13.569Z,4352
2017-05-25T16:06:54.218Z,4520
2017-05-25T16:07:34.930Z,4692
2017-05-25T16:08:15.605Z,5636
2017-05-25T16:08:56.133Z,5568
2017-05-25T16:09:36.812Z,5380
2017-05-25T16:10:17.528Z,4776
2017-05-25T16:10:58.176Z,4456
2017-05-25T16:11:38.931Z,4316
2017-05-25T16:12:19.638Z,4212
2017-05-25T16:13:00.335Z,4136
2017-05-25T16:13:41.016Z,4052
2017-05-25T16:14:21.642Z,4024
2017-05-25T16:15:02.210Z,3876
2017-05-25T16:15:42.895Z,3756
2017-05-25T16:16:23.424Z,3640
2017-05-25T16:17:04.002Z,3536
2017-05-25T16:17:44.731Z,3492
2017-05-25T16:18:25.399Z,3484
2017-05-25T16:19:05.926Z,3512
2017-05-25T16:19:46.630Z,3548
2017-05-25T16:20:27.322Z,3584
2017-05-25T16:21:08.026Z,3552
2017-05-25T16:21:48.671Z,3572
2017-05-25T16:22:29.318Z,3616
2017-05-25T16:23:09.974Z,3640
2017-05-25T16:23:50.728Z,4204
2017-05-25T16:24:31.381Z,4296
2017-05-25T16:25:12.038Z,4288
2017-05-25T16:25:52.689Z,4212
2017-05-25T16:26:33.341Z,4244
2017-05-25T16:27:13.992Z,3760
2017-05-25T16:27:54.646Z,4164
2017-05-25T16:28:35.301Z,3724
2017-05-25T16:29:15.954Z,4316
2017-05-25T16:29:57.648Z,3640
2017-05-25T16:30:39.306Z,3724
2017-05-25T16:31:20.067Z,3912
2017-05-25T16:32:00.722Z,4064
2017-05-25T16:32:41.365Z,4152
2017-05-25T16:33:22.022Z,4360
2017-05-25T16:34:03.696Z,3904
2017-05-25T16:34:44.450Z,3768
2017-05-25T16:35:24.983Z,3712
2017-05-25T16:36:06.713Z,3688
2017-05-25T16:36:47.411Z,3652
2017-05-25T16:37:28.084Z,4296
2017-05-25T16:38:08.622Z,4228
2017-05-25T16:38:49.336Z,4216
2017-05-25T16:39:30.029Z,4276
2017-05-25T16:40:10.803Z,4164
2017-05-25T16:40:51.377Z,3664
2017-05-25T16:41:32.086Z,3728
2017-05-25T16:42:12.770Z,3628
2017-05-25T16:42:53.307Z,3568
2017-05-25T16:43:34.022Z,3564
2017-05-25T16:44:15.744Z,3544
2017-05-25T16:44:56.289Z,3436
2017-05-25T16:45:37.025Z,3124
2017-05-25T16:46:17.810Z,3000
2017-05-25T16:46:58.334Z,2888
2017-05-25T16:47:39.046Z,3048
2017-05-25T16:48:19.760Z,3416
2017-05-25T16:49:00.435Z,3212
2017-05-25T16:49:40.962Z,3392
2017-05-25T16:50:22.667Z,3412
2017-05-25T16:51:03.382Z,3424
2017-05-25T16:51:44.159Z,3420
2017-05-25T16:52:24.789Z,3416
2017-05-25T16:53:05.392Z,3396
2017-05-25T16:53:45.979Z,3392
2017-05-25T16:54:26.569Z,3404
2017-05-25T16:55:07.092Z,3436
2017-05-25T16:55:47.658Z,3468
2017-05-25T16:56:28.285Z,3516
2017-05-25T16:57:08.871Z,3556
2017-05-25T16:57:49.399Z,3572
2017-05-25T16:58:29.970Z,3584
2017-05-25T16:59:10.590Z,3612
2017-05-25T16:59:51.575Z,3632
2017-05-25T17:00:32.108Z,3644
2017-05-25T17:01:12.810Z,3668
2017-05-25T17:01:53.445Z,3696
2017-05-25T17:02:34.096Z,3704
2017-05-25T17:03:14.639Z,3724
2017-05-25T17:03:55.312Z,3756
2017-05-25T17:04:35.838Z,3772
2017-05-25T17:05:16.808Z,3788
2017-05-25T17:05:58.989Z,3868
2017-05-25T17:06:40.620Z,3916
2017-05-25T17:07:23.265Z,3988
2017-05-25T17:08:04.819Z,4000
2017-05-25T17:08:45.561Z,4008
2017-05-25T17:09:27.321Z,3948
2017-05-25T17:10:08.465Z,3824
2017-05-25T17:10:49.006Z,3656
2017-05-25T17:11:29.612Z,3540
2017-05-25T17:12:10.214Z,3480
2017-05-25T17:12:50.849Z,3508
2017-05-25T17:13:31.524Z,3496
2017-05-25T17:14:12.160Z,3432
2017-05-25T17:14:52.718Z,3348
2017-05-25T17:15:33.383Z,3344
2017-05-25T17:16:13.929Z,3324
2017-05-25T17:16:54.529Z,3336
2017-05-25T17:17:35.114Z,3364
2017-05-25T17:18:15.644Z,3328
2017-05-25T17:18:56.237Z,3324
2017-05-25T17:19:36.836Z,3332
2017-05-25T17:20:17.423Z,3328
2017-05-25T17:20:57.981Z,3320
2017-05-25T17:21:38.527Z,3316
2017-05-25T17:22:19.091Z,3312
2017-05-25T17:22:59.736Z,3356
2017-05-25T17:23:40.414Z,3388
2017-05-25T17:24:21.039Z,3388
2017-05-25T17:25:01.700Z,3408
2017-05-25T17:25:42.248Z,3440
2017-05-25T17:26:22.929Z,3472
2017-05-25T17:27:03.484Z,3464
2017-05-25T17:27:45.058Z,3412
2017-05-25T17:28:25.702Z,3364